Terminal Aerodrome Forecast
Issued by NWS

Home | Current Version | Previous Version | Text Only | Print | Product List | Glossary On
Versions: 1 2 3 4 5 6 7 8 9 10 11 12 13 14 15 16
798
FTUS44 KTSA 262329
TAFFYV
TAF
KFYV 262329Z 2700/2724 00000KT P6SM VCTS SCT040CB BKN250
      TEMPO 2700/2701 3SM TSRA BKN035CB
     FM270200 VRB02KT P6SM BKN100
     FM270600 00000KT 4SM BR BKN250
      TEMPO 2708/2712 2SM BR
     FM271500 VRB03KT P6SM SCT035 BKN250
     FM271900 19005KT P6SM VCTS BKN050CB=

USA.gov is the U.S. government's official web portal to all federal, state and local government web resources and services.